Time;durP1;ratioP1;P1;durP2;ratioP2;P2;SDS_P1;SDS_P2;PMS_P1;PMS_P2;Temp;Humidity;BMP_temperature;BMP_pressure;BME280_temperature;BME280_humidity;BME280_pressure;Samples;Min_cycle;Max_cycle;Signal;HPM_P1;HPM_P2
2023/03/15 00:01:34;;;;;;;6.40;4.70;;;;;;;2.10;100.00;97757.97;5011484;28;20243;-77
2023/03/15 00:04:00;;;;;;;5.73;4.43;;;;;;;2.09;100.00;97782.31;5011568;28;20220;-78
2023/03/15 00:06:27;;;;;;;6.00;4.50;;;;;;;2.11;100.00;97780.50;5011338;28;20235;-78
2023/03/15 00:08:55;;;;;;;6.93;5.17;;;;;;;2.12;100.00;97782.19;5011477;28;20238;-77
2023/03/15 00:11:21;;;;;;;9.57;5.77;;;;;;;2.13;100.00;97791.72;5013099;28;20238;-77
2023/03/15 00:13:48;;;;;;;7.47;5.67;;;;;;;2.11;100.00;97798.75;5015584;28;20213;-78
2023/03/15 00:16:17;;;;;;;7.37;5.33;;;;;;;2.06;100.00;97808.50;5015437;28;20756;-77
2023/03/15 00:18:43;;;;;;;9.63;5.70;;;;;;;2.03;100.00;97813.84;5015362;28;20228;-78
2023/03/15 00:21:10;;;;;;;8.57;6.47;;;;;;;2.06;100.00;97816.34;5015063;28;20239;-77
2023/03/15 00:23:36;;;;;;;6.87;5.40;;;;;;;2.06;100.00;97818.94;5015052;28;20211;-77
2023/03/15 00:26:05;;;;;;;8.50;6.23;;;;;;;2.00;100.00;97828.75;5015093;28;20228;-77
2023/03/15 00:28:31;;;;;;;8.27;5.50;;;;;;;2.04;100.00;97835.53;5015074;28;20708;-77
2023/03/15 00:31:05;;;;;;;10.53;6.40;;;;;;;2.06;100.00;97839.78;5014830;28;20556;-77
2023/03/15 00:33:33;;;;;;;11.53;6.63;;;;;;;2.06;100.00;97850.22;5014936;28;20221;-77
2023/03/15 00:36:03;;;;;;;12.23;6.60;;;;;;;2.10;100.00;97851.78;5015107;28;20208;-77
2023/03/15 00:38:30;;;;;;;12.00;6.10;;;;;;;2.04;100.00;97857.25;5014665;28;20207;-78
2023/03/15 00:40:57;;;;;;;10.20;6.10;;;;;;;2.00;100.00;97854.81;5014598;28;20242;-78
2023/03/15 00:43:25;;;;;;;10.03;6.30;;;;;;;1.97;100.00;97853.16;5014557;28;20683;-77
2023/03/15 00:45:51;;;;;;;10.63;5.93;;;;;;;1.98;100.00;97852.28;5014758;28;20252;-78
2023/03/15 00:48:18;;;;;;;10.73;6.10;;;;;;;2.04;100.00;97856.41;5014585;28;20222;-78
2023/03/15 00:53:21;;;;;;;9.17;5.77;;;;;;;2.03;100.00;97855.53;5032308;28;20221;-77
2023/03/15 00:55:47;;;;;;;9.93;5.67;;;;;;;2.00;100.00;97860.88;5034286;28;20202;-77
2023/03/15 00:58:14;;;;;;;12.07;6.17;;;;;;;2.00;100.00;97866.09;5034135;28;20213;-77
2023/03/15 01:00:42;;;;;;;8.23;5.50;;;;;;;1.97;100.00;97876.63;5033850;28;20212;-77
2023/03/15 01:03:08;;;;;;;11.10;6.30;;;;;;;1.93;100.00;97885.50;5033919;28;20231;-77
2023/03/15 01:05:36;;;;;;;9.80;6.10;;;;;;;1.98;100.00;97883.56;5033689;28;20238;-77
2023/03/15 01:08:02;;;;;;;11.07;5.87;;;;;;;1.94;100.00;97887.19;5033850;28;20212;-77
2023/03/15 01:10:29;;;;;;;8.77;5.27;;;;;;;1.86;100.00;97889.25;5033621;28;20285;-77
2023/03/15 01:12:55;;;;;;;9.93;5.17;;;;;;;1.77;100.00;97884.38;5033801;28;20231;-77
2023/03/15 01:15:22;;;;;;;10.40;5.00;;;;;;;1.71;100.00;97897.63;5033807;28;20212;-77
2023/03/15 01:17:50;;;;;;;10.70;5.20;;;;;;;1.64;100.00;97908.34;5033726;28;20210;-77
2023/03/15 01:20:16;;;;;;;10.47;5.27;;;;;;;1.64;100.00;97901.38;5033191;28;20235;-77
2023/03/15 01:22:43;;;;;;;9.27;5.20;;;;;;;1.56;100.00;97898.22;5033428;28;20235;-77
2023/03/15 01:25:10;;;;;;;10.53;5.30;;;;;;;1.51;100.00;97907.97;5033558;28;20243;-77
2023/03/15 01:27:36;;;;;;;8.97;4.87;;;;;;;1.50;100.00;97906.25;5033502;28;20223;-77
2023/03/15 01:30:04;;;;;;;7.83;4.93;;;;;;;1.41;100.00;97901.38;5033046;28;20223;-77
2023/03/15 01:32:31;;;;;;;8.80;4.60;;;;;;;1.38;100.00;97908.47;5033326;28;20609;-77
2023/03/15 01:34:58;;;;;;;7.67;4.13;;;;;;;1.38;100.00;97901.50;5033506;28;20225;-77
2023/03/15 01:37:26;;;;;;;6.93;3.83;;;;;;;1.36;100.00;97905.06;5033250;28;20228;-77
2023/03/15 01:39:52;;;;;;;8.10;3.83;;;;;;;1.33;100.00;97913.84;5033135;28;20244;-77
2023/03/15 01:42:19;;;;;;;7.13;3.50;;;;;;;1.34;100.00;97915.53;5033227;28;20235;-77
2023/03/15 01:44:52;;;;;;;8.03;3.87;;;;;;;1.29;100.00;97911.41;5033177;28;20592;-77
2023/03/15 01:47:19;;;;;;;7.90;3.40;;;;;;;1.26;100.00;97914.97;5033085;28;20288;-77
2023/03/15 01:49:49;;;;;;;4.80;2.73;;;;;;;1.24;100.00;97924.56;5032865;28;20234;-77
2023/03/15 01:52:21;;;;;;;5.90;3.07;;;;;;;1.19;100.00;97925.66;5032860;28;20234;-77
2023/03/15 01:54:52;;;;;;;6.10;3.40;;;;;;;1.17;100.00;97927.47;5033051;28;20212;-77
2023/03/15 01:57:24;;;;;;;10.97;3.30;;;;;;;1.13;100.00;97929.34;5033142;28;20644;-77
2023/03/15 01:59:56;;;;;;;7.93;3.17;;;;;;;1.17;100.00;97928.28;5031159;28;20220;-77
2023/03/15 02:02:24;;;;;;;8.77;3.30;;;;;;;1.15;100.00;97937.91;5032831;28;20230;-77
2023/03/15 02:04:56;;;;;;;6.70;3.00;;;;;;;1.10;100.00;97947.63;5032786;28;20211;-77
2023/03/15 02:07:27;;;;;;;6.63;2.90;;;;;;;1.05;100.00;97944.34;5032882;28;20208;-77
2023/03/15 02:10:00;;;;;;;8.43;3.20;;;;;;;1.08;100.00;97939.03;5032507;28;20270;-77
2023/03/15 02:12:30;;;;;;;4.37;2.87;;;;;;;1.07;100.00;97945.16;5032536;28;20240;-77
2023/03/15 02:14:58;;;;;;;7.23;3.23;;;;;;;1.03;100.00;97951.34;5032771;28;20216;-77
2023/03/15 02:17:33;;;;;;;6.53;3.53;;;;;;;0.99;100.00;97952.34;5032490;28;20658;-77
2023/03/15 02:20:08;;;;;;;6.30;2.70;;;;;;;0.92;100.00;97948.28;5032273;28;20213;-77
2023/03/15 02:22:46;;;;;;;7.47;3.20;;;;;;;0.86;100.00;97956.28;5032286;28;20239;-77
2023/03/15 02:25:21;;;;;;;5.70;2.87;;;;;;;0.82;100.00;97957.31;5032489;28;20216;-77
2023/03/15 02:27:50;;;;;;;5.47;2.83;;;;;;;0.84;100.00;97954.63;5032549;28;20213;-77
2023/03/15 02:30:17;;;;;;;5.70;2.90;;;;;;;0.82;100.00;97962.50;5032220;28;20210;-77
2023/03/15 02:32:43;;;;;;;7.67;2.53;;;;;;;0.75;100.00;97960.16;5032143;28;20318;-77
2023/03/15 02:35:10;;;;;;;4.80;2.63;;;;;;;0.73;100.00;97962.81;5031680;28;20206;-77
2023/03/15 02:37:36;;;;;;;3.40;2.50;;;;;;;0.69;100.00;97966.41;5032417;28;20593;-77
2023/03/15 02:40:12;;;;;;;3.73;2.30;;;;;;;0.69;100.00;97974.19;5032124;28;20220;-78
2023/03/15 02:42:39;;;;;;;4.50;2.30;;;;;;;0.66;100.00;97973.44;5032230;28;20301;-77
2023/03/15 02:45:08;;;;;;;4.87;3.13;;;;;;;0.60;100.00;97982.31;5032247;28;20223;-77
2023/03/15 02:47:35;;;;;;;3.13;2.33;;;;;;;0.60;100.00;97995.31;5031863;28;20215;-77
2023/03/15 02:50:01;;;;;;;5.50;2.33;;;;;;;0.55;100.00;97989.41;5031598;28;20218;-77
2023/03/15 02:52:28;;;;;;;3.90;2.50;;;;;;;0.55;100.00;98001.56;5031700;28;20334;-77
2023/03/15 02:54:54;;;;;;;4.97;2.33;;;;;;;0.57;100.00;98007.56;5031863;28;20215;-77
2023/03/15 02:57:21;;;;;;;5.70;2.93;;;;;;;0.56;100.00;97992.88;5031805;28;20233;-77
2023/03/15 02:59:49;;;;;;;4.70;2.03;;;;;;;0.55;100.00;98007.59;5031484;28;20212;-77
2023/03/15 03:02:18;;;;;;;3.53;2.40;;;;;;;0.58;100.00;98017.06;5031413;28;20262;-77
2023/03/15 03:04:44;;;;;;;7.53;3.10;;;;;;;0.57;100.00;98025.75;5031849;28;20218;-77
2023/03/15 03:07:11;;;;;;;4.93;2.20;;;;;;;0.58;100.00;98027.47;5031457;28;20238;-77
2023/03/15 03:09:37;;;;;;;5.03;2.10;;;;;;;0.57;100.00;98028.38;5031353;28;20219;-77
2023/03/15 03:12:04;;;;;;;4.00;1.90;;;;;;;0.62;100.00;98031.69;5031482;28;20241;-77
2023/03/15 03:14:31;;;;;;;4.37;2.03;;;;;;;0.65;100.00;98036.75;5031543;28;20206;-76
2023/03/15 03:16:57;;;;;;;3.97;1.67;;;;;;;0.68;100.00;98047.91;5031484;28;20210;-77
2023/03/15 03:19:25;;;;;;;5.67;2.17;;;;;;;0.69;100.00;98047.00;5031026;28;20222;-77
2023/03/15 03:21:52;;;;;;;4.70;1.97;;;;;;;0.65;100.00;98053.22;5031228;28;20234;-77
2023/03/15 03:24:19;;;;;;;4.80;2.20;;;;;;;0.58;100.00;98056.94;5031566;28;20214;-77
2023/03/15 03:26:45;;;;;;;2.33;1.73;;;;;;;0.58;100.00;98062.13;5031228;28;20233;-77
2023/03/15 03:29:15;;;;;;;4.77;2.80;;;;;;;0.54;100.00;98068.31;5030999;28;20211;-78
2023/03/15 03:31:42;;;;;;;2.67;1.80;;;;;;;0.55;100.00;98072.59;5031115;28;20237;-77
2023/03/15 03:34:09;;;;;;;3.57;1.90;;;;;;;0.56;100.00;98074.31;5031488;28;20218;-77
2023/03/15 03:36:37;;;;;;;6.50;2.10;;;;;;;0.54;100.00;98075.25;5031343;28;20268;-77
2023/03/15 03:39:04;;;;;;;4.17;2.20;;;;;;;0.51;100.00;98086.59;5031272;28;20210;-77
2023/03/15 03:41:30;;;;;;;4.23;2.50;;;;;;;0.48;100.00;98083.22;5030848;28;20235;-77
2023/03/15 03:43:57;;;;;;;6.80;2.23;;;;;;;0.50;100.00;98095.28;5031006;28;20208;-77
2023/03/15 03:46:24;;;;;;;3.20;2.07;;;;;;;0.48;100.00;98096.22;5031122;28;20235;-77
2023/03/15 03:48:50;;;;;;;6.67;2.37;;;;;;;0.46;100.00;98098.91;5031284;28;20213;-77
2023/03/15 03:51:16;;;;;;;5.63;2.00;;;;;;;0.44;100.00;98100.66;5030471;28;20243;-77
2023/03/15 03:53:44;;;;;;;3.07;1.97;;;;;;;0.44;100.00;98110.25;5031031;28;20211;-77
2023/03/15 03:56:11;;;;;;;4.63;2.10;;;;;;;0.39;100.00;98104.31;5030842;28;20216;-77
2023/03/15 03:58:37;;;;;;;2.87;1.90;;;;;;;0.37;100.00;98116.53;5030946;28;20210;-77
2023/03/15 04:01:04;;;;;;;4.03;2.00;;;;;;;0.27;100.00;98118.53;5030609;28;20217;-77
2023/03/15 04:03:31;;;;;;;4.70;2.00;;;;;;;0.20;100.00;98121.34;5031100;28;20215;-77
2023/03/15 04:05:59;;;;;;;3.90;1.77;;;;;;;0.12;100.00;98129.34;5030843;28;20234;-77
2023/03/15 04:08:26;;;;;;;5.67;2.40;;;;;;;0.12;100.00;98133.69;5030811;28;20207;-77
2023/03/15 04:10:56;;;;;;;5.00;2.30;;;;;;;0.08;100.00;98127.72;5030515;28;20211;-77
2023/03/15 04:13:23;;;;;;;5.33;2.57;;;;;;;0.09;100.00;98129.47;5031065;28;20209;-77
2023/03/15 04:15:51;;;;;;;5.23;2.90;;;;;;;0.10;100.00;98138.09;5030986;28;20828;-77
2023/03/15 04:18:18;;;;;;;4.13;2.63;;;;;;;0.16;100.00;98143.97;5030851;28;20210;-77
2023/03/15 04:20:45;;;;;;;5.60;3.40;;;;;;;0.16;100.00;98143.97;5030501;28;20679;-77
2023/03/15 04:23:12;;;;;;;6.83;3.03;;;;;;;0.12;100.00;98150.13;5030736;28;20214;-77
2023/03/15 04:25:39;;;;;;;3.83;2.57;;;;;;;0.16;100.00;98145.72;5030616;28;20212;-77
2023/03/15 04:28:09;;;;;;;7.80;2.97;;;;;;;0.16;100.00;98151.78;5030818;28;20208;-77
2023/03/15 04:30:36;;;;;;;6.23;2.30;;;;;;;0.19;100.00;98150.84;5030597;28;20248;-77
2023/03/15 04:33:04;;;;;;;4.73;2.40;;;;;;;0.16;100.00;98156.97;5030476;28;20236;-75
2023/03/15 04:35:32;;;;;;;5.67;2.60;;;;;;;0.15;100.00;98154.41;5030676;28;20213;-77
2023/03/15 04:37:59;;;;;;;6.50;3.37;;;;;;;0.13;100.00;98151.00;5030457;28;20202;-77
2023/03/15 04:40:26;;;;;;;5.57;3.40;;;;;;;0.19;100.00;98156.88;5030539;28;20212;-77
2023/03/15 04:42:54;;;;;;;6.00;3.13;;;;;;;0.23;100.00;98158.50;5030481;28;20234;-77
2023/03/15 04:45:22;;;;;;;9.40;3.17;;;;;;;0.20;100.00;98161.16;5030645;28;20211;-77
2023/03/15 04:47:49;;;;;;;5.63;3.43;;;;;;;0.26;100.00;98168.78;5030472;28;20235;-77
2023/03/15 04:50:17;;;;;;;6.77;3.50;;;;;;;0.27;100.00;98170.50;5030334;28;20232;-77
2023/03/15 04:52:43;;;;;;;8.13;4.13;;;;;;;0.25;100.00;98161.88;5030257;28;20242;-77
2023/03/15 04:55:10;;;;;;;5.97;3.53;;;;;;;0.24;100.00;98162.78;5030865;28;20245;-77
2023/03/15 04:57:36;;;;;;;7.13;4.00;;;;;;;0.32;100.00;98160.81;5032483;28;20209;-77
2023/03/15 05:00:06;;;;;;;8.47;3.60;;;;;;;0.29;100.00;98163.53;5033913;28;20218;-77
2023/03/15 05:02:34;;;;;;;7.67;3.07;;;;;;;0.25;100.00;98161.88;5033858;28;20767;-77
2023/03/15 05:05:01;;;;;;;8.37;3.53;;;;;;;0.23;100.00;98163.69;5034030;28;20218;-77
2023/03/15 05:07:27;;;;;;;7.23;3.47;;;;;;;0.22;100.00;98155.94;5033997;28;20247;-77
2023/03/15 05:09:54;;;;;;;9.03;3.43;;;;;;;0.19;100.00;98151.66;5034010;28;20206;-77
2023/03/15 05:12:20;;;;;;;6.13;3.80;;;;;;;0.11;100.00;98158.84;5033689;28;20233;-77
2023/03/15 05:14:47;;;;;;;8.67;3.80;;;;;;;0.09;100.00;98150.25;5033666;28;20697;-77
2023/03/15 05:17:14;;;;;;;6.83;3.30;;;;;;;0.10;100.00;98157.13;5033629;28;20206;-77
2023/03/15 05:19:42;;;;;;;6.07;3.90;;;;;;;0.11;100.00;98158.84;5033343;28;20639;-77
2023/03/15 05:22:08;;;;;;;6.47;3.60;;;;;;;0.11;100.00;98158.84;5033673;28;20227;-77
2023/03/15 05:24:35;;;;;;;6.93;3.70;;;;;;;0.08;100.00;98164.09;5033572;28;20673;-77
2023/03/15 05:27:03;;;;;;;5.47;3.77;;;;;;;0.04;100.00;98165.09;5033721;28;20235;-77
2023/03/15 05:29:30;;;;;;;5.83;3.43;;;;;;;0.04;100.00;98161.63;5033683;28;20215;-77
2023/03/15 05:31:56;;;;;;;7.77;4.00;;;;;;;0.06;100.00;98160.69;5033619;28;20229;-75
2023/03/15 05:34:23;;;;;;;6.07;3.87;;;;;;;0.03;100.00;98166.00;5032894;28;20224;-78
2023/03/15 05:36:51;;;;;;;11.10;3.80;;;;;;;-0.03;100.00;98163.56;5033802;28;20206;-77
2023/03/15 05:39:17;;;;;;;8.00;3.87;;;;;;;-0.07;100.00;98161.06;5035186;28;20217;-77
2023/03/15 05:41:44;;;;;;;6.37;3.43;;;;;;;-0.08;100.00;98179.31;5039928;28;20228;-77
2023/03/15 05:44:10;;;;;;;4.77;3.43;;;;;;;-0.08;100.00;98172.34;5037998;28;20217;-78
2023/03/15 05:46:37;;;;;;;6.47;3.60;;;;;;;-0.10;100.00;98174.16;5033948;28;20230;-77
2023/03/15 05:49:04;;;;;;;7.33;4.03;;;;;;;-0.06;100.00;98174.03;5035317;28;20218;-78
2023/03/15 05:51:30;;;;;;;12.60;4.17;;;;;;;-0.01;100.00;98174.75;5044901;28;20242;-78
2023/03/15 05:53:58;;;;;;;6.07;2.83;;;;;;;0.10;100.00;98177.91;5042726;28;20218;-78
2023/03/15 05:56:24;;;;;;;7.63;3.27;;;;;;;0.12;100.00;98176.13;5034006;28;20222;-77
2023/03/15 05:58:51;;;;;;;7.40;3.07;;;;;;;0.09;100.00;98181.41;5033621;28;20214;-77
2023/03/15 06:01:18;;;;;;;8.53;3.57;;;;;;;0.06;100.00;98175.41;5033478;28;20231;-78
2023/03/15 06:03:44;;;;;;;6.00;3.10;;;;;;;0.03;100.00;98186.78;5033241;28;20217;-77
2023/03/15 06:06:11;;;;;;;5.63;3.10;;;;;;;0.02;100.00;98179.84;5033072;28;20463;-78
2023/03/15 06:08:37;;;;;;;6.87;3.53;;;;;;;0.09;100.00;98183.16;5031846;28;20218;-78
2023/03/15 06:11:05;;;;;;;6.53;3.00;;;;;;;0.05;100.00;98184.97;5032487;28;20207;-77
2023/03/15 06:13:32;;;;;;;7.57;3.30;;;;;;;0.10;100.00;98188.31;5032702;28;20215;-77
2023/03/15 06:15:58;;;;;;;7.53;3.27;;;;;;;0.05;100.00;98195.38;5032635;28;20583;-76
2023/03/15 06:18:25;;;;;;;5.10;3.20;;;;;;;0.06;100.00;98199.66;5032581;28;20216;-76
2023/03/15 06:20:51;;;;;;;7.83;3.40;;;;;;;0.12;100.00;98199.50;5032225;28;20583;-76
2023/03/15 06:23:18;;;;;;;6.93;3.50;;;;;;;0.20;100.00;98199.31;5032488;28;20206;-77
2023/03/15 06:25:45;;;;;;;6.13;3.70;;;;;;;0.34;100.00;98204.97;5032378;28;20214;-77
2023/03/15 06:28:13;;;;;;;10.87;4.37;;;;;;;0.35;100.00;98204.94;5032134;28;20239;-77
2023/03/15 06:30:43;;;;;;;8.90;3.90;;;;;;;0.39;100.00;98205.69;5031757;28;20214;-77
2023/03/15 06:33:10;;;;;;;8.50;4.00;;;;;;;0.42;100.00;98213.41;5032006;28;20695;-77
2023/03/15 06:35:37;;;;;;;12.97;3.70;;;;;;;0.51;100.00;98216.59;5032387;28;20277;-77
2023/03/15 06:38:03;;;;;;;4.97;3.60;;;;;;;0.54;100.00;98221.72;5032183;28;20207;-77
2023/03/15 06:40:30;;;;;;;8.47;3.40;;;;;;;0.61;100.00;98218.03;5031885;28;20583;-77
2023/03/15 06:42:56;;;;;;;8.30;4.40;;;;;;;0.68;100.00;98209.16;5031897;28;20241;-77
2023/03/15 06:45:24;;;;;;;6.87;3.13;;;;;;;0.74;100.00;98214.19;5031967;28;20666;-77
2023/03/15 06:47:51;;;;;;;8.03;3.60;;;;;;;0.85;100.00;98222.53;5032004;28;20229;-77
2023/03/15 06:50:18;;;;;;;4.43;3.63;;;;;;;0.90;100.00;98231.06;5031910;28;20219;-77
2023/03/15 06:52:44;;;;;;;8.17;3.47;;;;;;;0.94;100.00;98224.88;5046175;22;20235;-76
2023/03/15 06:55:15;;;;;;;5.57;3.07;;;;;;;1.06;100.00;98216.69;5031768;28;20212;-75
2023/03/15 06:57:42;;;;;;;7.10;3.57;;;;;;;1.12;100.00;98220.84;5031502;28;20211;-76
2023/03/15 07:00:10;;;;;;;7.27;3.20;;;;;;;1.19;100.00;98219.75;5031456;28;20212;-77
2023/03/15 07:02:38;;;;;;;7.77;3.17;;;;;;;1.24;100.00;98221.31;5031542;28;20240;-76
2023/03/15 07:05:05;;;;;;;9.20;3.40;;;;;;;1.28;100.00;98219.50;5031579;28;20207;-75
2023/03/15 07:07:32;;;;;;;5.13;2.47;;;;;;;1.38;100.00;98220.88;5031402;28;20231;-77
2023/03/15 07:09:58;;;;;;;6.07;2.90;;;;;;;1.54;100.00;98219.50;5031199;28;20209;-75
2023/03/15 07:12:25;;;;;;;5.90;2.80;;;;;;;1.58;100.00;98221.97;5031246;28;20235;-76
2023/03/15 07:14:52;;;;;;;6.33;2.80;;;;;;;1.62;100.00;98213.16;5031532;28;20302;-76
2023/03/15 07:17:18;;;;;;;5.20;2.60;;;;;;;1.70;100.00;98216.34;5031601;28;20246;-76
2023/03/15 07:19:46;;;;;;;7.20;2.90;;;;;;;1.78;100.00;98218.72;5030973;28;20207;-77
2023/03/15 07:22:13;;;;;;;8.23;2.70;;;;;;;1.87;100.00;98223.59;5031341;28;20230;-76
2023/03/15 07:24:39;;;;;;;5.40;2.60;;;;;;;1.94;100.00;98220.75;5031123;28;20203;-76
2023/03/15 07:27:06;;;;;;;5.20;2.63;;;;;;;2.01;100.00;98222.25;5031368;28;20240;-77
2023/03/15 07:29:32;;;;;;;6.93;2.77;;;;;;;2.07;100.00;98216.81;5031028;28;20209;-78
2023/03/15 07:32:00;;;;;;;5.07;2.10;;;;;;;2.18;100.00;98224.25;5031231;28;20309;-78
2023/03/15 07:34:26;;;;;;;6.67;2.47;;;;;;;2.25;100.00;98221.41;5030564;28;20212;-77
2023/03/15 07:36:54;;;;;;;4.97;2.43;;;;;;;2.33;100.00;98221.97;5031302;28;20243;-77
2023/03/15 07:39:22;;;;;;;6.50;1.87;;;;;;;2.52;100.00;98224.78;5030658;28;20211;-77
2023/03/15 07:41:48;;;;;;;7.53;2.20;;;;;;;2.58;100.00;98225.41;5030769;28;20316;-76
2023/03/15 07:44:15;;;;;;;5.23;2.00;;;;;;;2.63;100.00;98231.31;5029740;28;20234;-76
2023/03/15 07:46:41;;;;;;;5.87;2.50;;;;;;;2.71;100.00;98239.72;5031029;28;20220;-76
2023/03/15 07:49:08;;;;;;;3.63;1.70;;;;;;;2.82;100.00;98237.56;5029547;28;20236;-76
2023/03/15 07:51:34;;;;;;;8.30;2.13;;;;;;;2.97;98.50;98234.41;5029774;28;20227;-76
2023/03/15 07:54:02;;;;;;;6.23;2.33;;;;;;;3.06;95.56;98223.59;5030878;28;20207;-77
2023/03/15 07:56:29;;;;;;;6.33;2.30;;;;;;;3.01;93.76;98214.25;5030767;28;20702;-77
2023/03/15 07:58:55;;;;;;;5.40;2.00;;;;;;;3.02;92.06;98216.81;5030931;28;20206;-76
2023/03/15 08:01:22;;;;;;;4.40;1.90;;;;;;;3.05;92.50;98205.41;5029213;28;20211;-76
2023/03/15 08:03:48;;;;;;;4.33;2.10;;;;;;;3.09;92.21;98213.03;5027325;28;20565;-76
2023/03/15 08:06:14;;;;;;;5.30;1.87;;;;;;;3.18;88.88;98215.28;5029006;28;20219;-76
2023/03/15 08:08:41;;;;;;;4.93;2.37;;;;;;;3.32;87.57;98214.75;5030310;28;20236;-76
2023/03/15 08:11:09;;;;;;;5.50;2.00;;;;;;;3.40;86.64;98210.94;5030115;28;20216;-76
2023/03/15 08:13:35;;;;;;;7.40;1.60;;;;;;;3.45;85.88;98201.16;5030478;28;20225;-76
2023/03/15 08:16:02;;;;;;;6.60;1.90;;;;;;;3.57;87.26;98218.97;5030303;28;20600;-76
2023/03/15 08:18:28;;;;;;;5.97;1.77;;;;;;;3.71;85.72;98208.78;5030320;28;20224;-76
2023/03/15 08:20:56;;;;;;;5.22;1.80;;;;;;;3.76;85.51;98217.31;5029647;28;20856;-78
2023/03/15 08:23:22;;;;;;;6.03;1.97;;;;;;;3.85;84.77;98206.44;5030143;28;20679;-76
2023/03/15 08:25:49;;;;;;;6.07;1.83;;;;;;;3.95;83.78;98206.91;5030448;28;20219;-76
2023/03/15 08:28:17;;;;;;;5.93;1.80;;;;;;;4.13;83.40;98211.38;5030066;28;20607;-76
2023/03/15 08:30:43;;;;;;;5.17;1.60;;;;;;;4.19;83.59;98217.22;5029864;28;20219;-76
2023/03/15 08:33:11;;;;;;;6.57;1.70;;;;;;;4.27;81.12;98209.88;5033034;28;20233;-76
2023/03/15 08:35:37;;;;;;;5.53;2.00;;;;;;;4.42;81.08;98210.97;5032777;28;20216;-76
2023/03/15 08:38:04;;;;;;;5.20;1.80;;;;;;;4.43;79.80;98210.91;5032415;28;20298;-76
2023/03/15 08:40:31;;;;;;;3.13;1.40;;;;;;;4.53;77.84;98206.97;5033063;28;20585;-76
2023/03/15 08:42:58;;;;;;;4.27;1.40;;;;;;;4.65;75.26;98201.19;5033203;28;20278;-76
2023/03/15 08:45:26;;;;;;;7.97;2.20;;;;;;;4.82;77.05;98214.38;5032623;28;20215;-76
2023/03/15 08:47:55;;;;;;;2.97;1.40;;;;;;;5.00;76.94;98217.94;5017994;28;20227;-76
2023/03/15 08:50:21;;;;;;;4.80;1.50;;;;;;;5.32;77.03;98222.53;5012873;28;20217;-77
2023/03/15 08:52:47;;;;;;;4.57;1.80;;;;;;;5.66;74.63;98210.38;5011146;28;20240;-75
2023/03/15 08:55:14;;;;;;;4.00;1.60;;;;;;;5.91;71.51;98199.53;5012738;28;20213;-76
2023/03/15 08:57:41;;;;;;;5.33;1.77;;;;;;;6.02;67.15;98177.13;5012917;28;20206;-76
2023/03/15 09:00:14;;;;;;;5.57;1.40;;;;;;;6.13;68.33;98194.94;5011296;28;20206;-76
2023/03/15 09:02:42;;;;;;;5.40;2.00;;;;;;;6.26;68.24;98196.00;5012823;28;20506;-77
2023/03/15 09:05:10;;;;;;;5.53;1.70;;;;;;;6.27;66.07;98193.31;5012786;28;20218;-75
2023/03/15 09:07:37;;;;;;;3.20;1.50;;;;;;;6.28;66.54;98191.56;5012431;28;20614;-77
2023/03/15 09:10:04;;;;;;;2.57;1.37;;;;;;;6.33;66.44;98198.25;5012532;28;20298;-76
2023/03/15 09:12:31;;;;;;;4.13;1.20;;;;;;;6.40;63.50;98183.88;5013074;28;20577;-76
2023/03/15 09:14:57;;;;;;;3.63;1.60;;;;;;;6.51;64.80;98197.28;5013238;28;20614;-76
2023/03/15 09:17:24;;;;;;;3.47;1.30;;;;;;;6.65;64.59;98191.34;5012923;28;20214;-76
2023/03/15 09:19:52;;;;;;;5.37;1.40;;;;;;;6.50;62.18;98182.47;5012760;28;20211;-76
2023/03/15 09:22:18;;;;;;;5.63;2.00;;;;;;;6.73;64.24;98205.72;5013065;28;20466;-76
2023/03/15 09:24:45;;;;;;;4.50;1.50;;;;;;;6.80;64.56;98209.75;5013701;28;20221;-76
2023/03/15 09:27:12;;;;;;;3.80;1.30;;;;;;;6.93;65.08;98212.56;5012636;28;20219;-76
2023/03/15 09:29:38;;;;;;;7.27;1.70;;;;;;;6.51;60.45;98186.78;5013006;28;20649;-76
2023/03/15 09:32:05;;;;;;;5.60;1.20;;;;;;;6.50;62.49;98198.22;5013395;28;20708;-76
2023/03/15 09:34:32;;;;;;;2.93;1.20;;;;;;;6.45;61.56;98202.88;5013441;28;20213;-75
2023/03/15 09:36:59;;;;;;;2.37;1.33;;;;;;;6.45;60.98;98196.75;5013384;28;20206;-76
2023/03/15 09:39:26;;;;;;;3.90;1.30;;;;;;;6.45;62.45;98210.75;5013325;28;20234;-77
2023/03/15 09:41:57;;;;;;;3.03;1.27;;;;;;;6.61;62.21;98216.06;5013137;28;20257;-75
2023/03/15 09:44:43;;;;;;;3.27;1.17;;;;;;;6.73;62.59;98216.25;5012925;28;20703;-77
2023/03/15 09:47:26;;;;;;;4.20;1.00;;;;;;;6.79;58.36;98171.25;5013758;28;20211;-77
2023/03/15 09:49:58;;;;;;;2.63;1.30;;;;;;;6.77;58.58;98188.91;5013202;28;20220;-77
2023/03/15 09:52:33;;;;;;;4.13;1.43;;;;;;;6.65;58.24;98183.47;5013098;28;20253;-76
2023/03/15 09:55:03;;;;;;;4.77;1.40;;;;;;;6.70;58.79;98187.53;5013618;28;20208;-77
2023/03/15 09:57:39;;;;;;;4.23;1.20;;;;;;;6.82;60.43;98212.28;5013464;28;20216;-76
2023/03/15 10:00:10;;;;;;;4.23;1.10;;;;;;;6.92;59.79;98206.47;5012814;28;20206;-78
2023/03/15 10:02:42;;;;;;;3.13;1.13;;;;;;;6.99;60.71;98210.47;5012972;28;20361;-82
2023/03/15 10:05:15;;;;;;;4.50;1.23;;;;;;;7.03;58.70;98196.22;5013071;28;20558;-78
2023/03/15 10:07:43;;;;;;;5.23;1.30;;;;;;;6.75;59.19;98198.63;5013251;28;20221;-79
2023/03/15 10:10:17;;;;;;;4.23;1.40;;;;;;;6.90;59.49;98203.06;5012844;28;20211;-78
2023/03/15 10:12:50;;;;;;;4.00;1.17;;;;;;;7.12;58.64;98197.50;5013079;28;20292;-78
2023/03/15 10:15:28;;;;;;;3.33;1.30;;;;;;;7.34;59.04;98201.53;5012853;28;20212;-78
2023/03/15 10:18:12;;;;;;;4.90;1.33;;;;;;;7.63;60.77;98213.88;5013085;28;20680;-78
2023/03/15 10:20:43;;;;;;;3.07;1.40;;;;;;;7.83;60.02;98209.19;5012739;28;20211;-86
2023/03/15 10:23:16;;;;;;;3.90;1.23;;;;;;;7.74;58.24;98195.72;5013072;28;20232;-80
2023/03/15 10:25:44;;;;;;;4.63;1.33;;;;;;;7.70;58.67;98194.19;5012968;28;20346;-81
2023/03/15 10:28:14;;;;;;;2.97;0.90;;;;;;;7.67;58.72;98205.75;5012836;28;20240;-79
2023/03/15 10:30:47;;;;;;;4.70;1.23;;;;;;;7.71;58.17;98195.91;5012589;28;20215;-81
2023/03/15 10:33:19;;;;;;;2.50;1.00;;;;;;;7.75;58.95;98200.03;5012637;28;20237;-80
2023/03/15 10:35:45;;;;;;;2.20;1.20;;;;;;;7.78;59.52;98208.59;5013119;28;20213;-80
2023/03/15 10:38:17;;;;;;;4.13;1.20;;;;;;;7.79;57.53;98188.41;5012608;28;20202;-79
2023/03/15 10:40:45;;;;;;;3.40;1.40;;;;;;;7.98;59.13;98199.56;5012431;28;20245;-82
2023/03/15 10:43:16;;;;;;;4.53;1.10;;;;;;;8.20;58.68;98198.25;5013666;28;20235;-82
2023/03/15 10:45:47;;;;;;;2.40;1.10;;;;;;;8.31;56.19;98181.81;5013275;28;20235;-80
2023/03/15 10:48:14;;;;;;;3.93;1.27;;;;;;;8.54;56.23;98178.66;5012600;28;20264;-80
2023/03/15 10:50:40;;;;;;;5.23;1.00;;;;;;;8.71;55.89;98167.97;5012104;28;20214;-81
2023/03/15 10:53:10;;;;;;;2.77;1.30;;;;;;;8.81;55.60;98177.00;5011920;28;20338;-83
2023/03/15 10:55:44;;;;;;;3.00;1.07;;;;;;;8.91;56.02;98183.38;5011843;28;20217;-80
2023/03/15 10:58:22;;;;;;;4.93;1.10;;;;;;;8.91;55.85;98175.47;5011960;28;20209;-81
2023/03/15 11:00:51;;;;;;;4.67;1.53;;;;;;;8.85;54.80;98168.81;5012392;28;20207;-81
2023/03/15 11:03:19;;;;;;;3.50;1.30;;;;;;;8.72;54.55;98172.28;5011748;28;20314;-81
2023/03/15 11:05:48;;;;;;;2.00;1.20;;;;;;;8.34;54.89;98171.94;5012036;28;20219;-80
2023/03/15 11:08:16;;;;;;;3.60;1.20;;;;;;;8.03;56.89;98182.56;5011548;28;20230;-79
2023/03/15 11:10:45;;;;;;;2.90;1.10;;;;;;;7.97;57.54;98192.63;5011642;28;20231;-80
2023/03/15 11:13:13;;;;;;;2.73;1.00;;;;;;;7.81;57.58;98199.69;5011871;28;20237;-80
2023/03/15 11:15:48;;;;;;;1.73;1.10;;;;;;;7.65;57.94;98201.50;5011806;28;20234;-79
2023/03/15 11:18:18;;;;;;;2.33;1.10;;;;;;;7.57;58.23;98190.56;5011666;28;20253;-82
2023/03/15 11:20:45;;;;;;;1.40;1.00;;;;;;;7.55;57.14;98184.53;5011564;28;20219;-82
2023/03/15 11:23:15;;;;;;;2.57;1.00;;;;;;;7.41;52.60;98139.78;5011638;28;20307;-77
2023/03/15 11:25:42;;;;;;;2.33;1.03;;;;;;;7.36;53.94;98157.59;5011767;28;20216;-80
2023/03/15 11:28:17;;;;;;;3.07;1.03;;;;;;;7.23;52.02;98123.22;5011567;28;20222;-79
2023/03/15 11:30:45;;;;;;;1.43;0.90;;;;;;;7.26;51.73;98124.84;5011250;28;20203;-78
2023/03/15 11:33:32;;;;;;;1.27;0.70;;;;;;;7.34;51.54;98120.03;5011720;28;20261;-78
2023/03/15 11:36:03;;;;;;;3.17;1.00;;;;;;;7.32;53.51;98156.03;5011401;28;20309;-78
2023/03/15 11:38:33;;;;;;;1.37;0.83;;;;;;;7.27;52.24;98131.78;5011325;28;20390;-79
2023/03/15 11:41:05;;;;;;;2.20;0.73;;;;;;;7.12;52.06;98130.03;5010933;28;20337;-79
2023/03/15 11:43:45;;;;;;;3.90;1.00;;;;;;;7.03;52.69;98138.41;5011313;28;20234;-78